.
WxDataArchive / Data Records for 2008-01-01
2007-12-31 January 2008 2008-01-02

Data Records for Tuesday, 01 January 2008

Time	Temp	Chill	HIndex	Humid	Dewpt	 Wind 	HiWind	WindDir	Rain 	Barom 
-----	----	-----	------	-----	-----	------	------	-------	-----	----- 
00:00	34.6	34.6	34.6	96	33.6	3	10	248	0.01	29.579 
00:05	35.0	31.5	35.0	96	34.0	4	11	248	0.00	29.578 
00:10	35.2	31.8	35.2	96	34.2	4	11	248	0.01	29.579 
00:15	35.3	31.0	35.3	96	34.3	5	13	248	0.00	29.578 
00:20	35.3	30.2	35.3	95	34.0	6	13	270	0.01	29.579 
00:25	35.3	30.2	35.3	95	34.0	6	13	270	0.00	29.578 
00:30	35.2	31.8	35.2	94	33.6	4	14	248	0.01	29.579 
00:35	35.2	30.8	35.2	94	33.6	5	10	248	0.00	29.580 
00:40	35.0	31.5	35.0	94	33.5	4	12	270	0.01	29.579 
00:45	34.6	30.1	34.6	93	32.8	5	12	270	0.00	29.580 
00:50	34.4	34.4	34.4	93	32.6	2	6	248	0.01	29.581 
00:55	34.1	30.5	34.1	93	32.3	4	10	248	0.00	29.580 
01:00	34.0	34.0	34.0	93	32.2	3	7	270	0.01	29.580 
01:05	33.8	33.8	33.8	93	32.0	3	10	248	0.00	29.579 
01:10	33.7	33.7	33.7	94	32.2	3	10	248	0.00	29.579 
01:15	33.7	30.0	33.7	94	32.2	4	10	248	0.01	29.577 
01:20	33.5	29.8	33.5	94	32.0	4	12	248	0.00	29.577 
01:25	33.5	28.8	33.5	94	32.0	5	14	248	0.00	29.577 
01:30	33.5	29.8	33.5	94	32.0	4	12	248	0.00	29.574 
01:35	33.5	28.8	33.5	94	32.0	5	13	248	0.01	29.572 
01:40	33.4	29.7	33.4	94	31.9	4	12	248	0.00	29.574 
01:45	33.4	28.7	33.4	94	31.9	5	12	248	0.00	29.571 
01:50	33.2	29.5	33.2	94	31.7	4	9	248	0.00	29.574 
01:55	33.2	27.7	33.2	94	31.7	6	16	270	0.00	29.569 
02:00	33.1	29.3	33.1	94	31.6	4	11	270	0.00	29.575 
02:05	33.1	27.5	33.1	94	31.6	6	15	270	0.00	29.572 
02:10	32.9	28.1	32.9	93	31.1	5	10	270	0.00	29.578 
02:15	32.9	28.1	32.9	93	31.1	5	12	270	0.00	29.579 
02:20	32.8	28.0	32.8	93	31.0	5	18	270	0.01	29.585 
02:25	32.8	28.0	32.8	93	31.0	5	11	270	0.00	29.591 
02:30	32.8	29.0	32.8	93	31.0	4	7	270	0.00	29.597 
02:35	32.7	28.9	32.7	93	30.9	4	13	270	0.00	29.602 
02:40	32.8	29.0	32.8	92	30.7	4	8	270	0.00	29.611 
02:45	32.8	29.0	32.8	92	30.7	4	10	270	0.00	29.616 
02:50	32.8	29.0	32.8	92	30.7	4	7	270	0.00	29.623 
02:55	32.8	28.0	32.8	91	30.5	5	9	270	0.00	29.627 
03:00	32.8	29.0	32.8	91	30.5	4	13	270	0.00	29.636 
03:05	32.7	28.9	32.7	91	30.4	4	7	270	0.00	29.644 
03:10	32.7	28.9	32.7	91	30.4	4	8	270	0.00	29.649 
03:15	32.7	32.7	32.7	91	30.4	3	6	270	0.00	29.658 
03:20	32.5	28.7	32.5	92	30.4	4	9	270	0.00	29.664 
03:25	32.4	28.5	32.4	92	30.3	4	10	270	0.00	29.675 
03:30	32.2	32.2	32.2	93	30.4	3	7	270	0.00	29.677 
03:35	32.2	32.2	32.2	93	30.4	2	5	270	0.00	29.680 
03:40	32.2	32.2	32.2	94	30.7	3	7	270	0.00	29.687 
03:45	32.1	32.1	32.1	94	30.6	3	6	270	0.00	29.694 
03:50	32.1	32.1	32.1	94	30.6	3	6	270	0.00	29.697 
03:55	32.1	32.1	32.1	94	30.6	3	7	270	0.00	29.706 
04:00	32.1	32.1	32.1	94	30.6	3	8	270	0.00	29.708 
04:05	32.1	28.2	32.1	94	30.6	4	11	270	0.00	29.714 
04:10	31.9	31.9	31.9	94	30.4	3	8	270	0.00	29.717 
04:15	31.9	31.9	31.9	94	30.4	3	7	270	0.00	29.724 
04:20	31.9	31.9	31.9	95	30.6	3	7	270	0.00	29.726 
04:25	31.9	31.9	31.9	95	30.6	3	6	270	0.00	29.731 
04:30	31.9	31.9	31.9	95	30.6	3	5	270	0.00	29.737 
04:35	31.8	31.8	31.8	95	30.5	2	5	270	0.00	29.740 
04:40	31.8	31.8	31.8	95	30.5	2	5	270	0.00	29.744 
04:45	31.8	31.8	31.8	95	30.5	2	6	292	0.00	29.750 
04:50	31.6	31.6	31.6	95	30.3	3	5	270	0.00	29.756 
04:55	31.6	31.6	31.6	95	30.3	3	5	270	0.00	29.758 
05:00	31.5	31.5	31.5	95	30.2	3	6	270	0.00	29.762 
05:05	31.5	31.5	31.5	95	30.2	3	10	270	0.00	29.763 
05:10	31.3	27.3	31.3	94	29.8	4	10	270	0.00	29.771 
05:15	31.3	27.3	31.3	94	29.8	4	11	270	0.00	29.774 
05:20	31.2	31.2	31.2	94	29.7	3	7	292	0.00	29.776 
05:25	31.2	31.2	31.2	94	29.7	2	5	292	0.00	29.781 
05:30	31.0	31.0	31.0	94	29.5	3	6	292	0.00	29.789 
05:35	31.0	31.0	31.0	93	29.2	3	10	270	0.00	29.790 
05:40	31.0	31.0	31.0	93	29.2	3	7	315	0.00	29.793 
05:45	30.9	30.9	30.9	92	28.9	2	4	270	0.00	29.798 
05:50	30.9	30.9	30.9	92	28.9	2	7	270	0.00	29.803 
05:55	30.9	30.9	30.9	91	28.6	3	7	270	0.00	29.807 
06:00	31.0	31.0	31.0	91	28.7	3	7	270	0.00	29.810 
06:05	31.0	31.0	31.0	90	28.4	3	10	270	0.00	29.818 
06:10	31.0	31.0	31.0	89	28.1	2	6	270	0.00	29.823 
06:15	30.9	30.9	30.9	89	28.0	3	6	270	0.00	29.828 
06:20	30.9	30.9	30.9	90	28.3	3	7	270	0.00	29.836 
06:25	30.9	30.9	30.9	90	28.3	3	6	270	0.00	29.838 
06:30	30.9	30.9	30.9	90	28.3	3	8	270	0.00	29.841 
06:35	30.9	30.9	30.9	90	28.3	3	9	270	0.00	29.849 
06:40	30.9	30.9	30.9	90	28.3	2	5	270	0.00	29.853 
06:45	30.9	30.9	30.9	90	28.3	2	6	248	0.00	29.854 
06:50	30.9	30.9	30.9	90	28.3	3	6	270	0.00	29.855 
06:55	30.9	30.9	30.9	90	28.3	3	6	270	0.00	29.858 
07:00	30.9	30.9	30.9	90	28.3	2	5	270	0.00	29.863 
07:05	30.7	30.7	30.7	90	28.1	2	6	270	0.00	29.865 
07:10	30.7	30.7	30.7	90	28.1	3	6	270	0.00	29.868 
07:15	30.4	30.4	30.4	89	27.6	3	9	270	0.00	29.870 
07:20	30.0	30.0	30.0	89	27.2	3	11	270	0.00	29.875 
07:25	29.5	25.2	29.5	89	26.7	4	10	270	0.00	29.878 
07:30	29.3	25.0	29.3	90	26.7	4	11	270	0.00	29.885 
07:35	29.1	24.7	29.1	90	26.5	4	10	270	0.00	29.886 
07:40	29.0	29.0	29.0	90	26.4	2	7	270	0.00	29.888 
07:45	28.8	28.8	28.8	90	26.2	3	6	270	0.00	29.890 
07:50	28.5	28.5	28.5	90	25.9	3	10	270	0.00	29.894 
07:55	28.4	23.9	28.4	90	25.8	4	11	270	0.00	29.898 
08:00	28.2	28.2	28.2	89	25.4	3	12	270	0.00	29.901 
08:05	28.1	28.1	28.1	89	25.3	3	7	270	0.00	29.905 
08:10	27.9	23.3	27.9	89	25.1	4	7	270	0.00	29.906 
08:15	27.8	23.2	27.8	89	25.0	4	8	270	0.00	29.909 
08:20	27.6	23.0	27.6	89	24.8	4	10	270	0.00	29.913 
08:25	27.5	22.9	27.5	89	24.7	4	10	270	0.00	29.918 
08:30	27.3	22.6	27.3	89	24.5	4	12	270	0.00	29.919 
08:35	27.2	21.4	27.2	89	24.4	5	12	270	0.00	29.921 
08:40	27.0	22.3	27.0	89	24.2	4	15	270	0.00	29.922 
08:45	27.0	22.3	27.0	89	24.2	4	9	270	0.00	29.928 
08:50	27.0	27.0	27.0	90	24.5	3	9	248	0.00	29.932 
08:55	26.9	26.9	26.9	90	24.4	3	10	270	0.00	29.936 
09:00	26.9	26.9	26.9	90	24.4	3	9	270	0.00	29.938 
09:05	26.7	22.0	26.7	90	24.2	4	12	270	0.00	29.941 
09:10	26.7	22.0	26.7	89	23.9	4	10	270	0.00	29.947 
09:15	26.9	22.2	26.9	89	24.1	4	10	270	0.00	29.949 
09:20	26.9	26.9	26.9	89	24.1	3	10	270	0.00	29.952 
09:25	26.9	22.2	26.9	89	24.1	4	10	270	0.00	29.954 
09:30	26.9	26.9	26.9	89	24.1	3	7	270	0.00	29.956 
09:35	26.9	26.9	26.9	89	24.1	3	7	270	0.00	29.958 
09:40	26.9	26.9	26.9	88	23.8	3	6	270	0.00	29.963 
09:45	26.9	22.2	26.9	88	23.8	4	10	270	0.00	29.968 
09:50	27.0	27.0	27.0	88	23.9	3	11	270	0.00	29.969 
09:55	26.9	22.2	26.9	87	23.6	4	9	270	0.00	29.970 
10:00	26.9	22.2	26.9	87	23.6	4	9	270	0.00	29.972 
10:05	26.7	22.0	26.7	87	23.4	4	7	270	0.00	29.977 
10:10	26.7	22.0	26.7	87	23.4	4	10	270	0.00	29.980 
10:15	26.6	21.8	26.6	86	23.0	4	10	270	0.00	29.983 
10:20	26.6	26.6	26.6	87	23.3	3	9	270	0.00	29.985 
10:25	26.4	21.6	26.4	87	23.1	4	11	270	0.00	29.987 
10:30	26.3	26.3	26.3	87	23.0	3	9	292	0.00	29.988 
10:35	26.4	21.6	26.4	86	22.8	4	11	270	0.00	29.990 
10:40	26.3	26.3	26.3	86	22.7	3	6	270	0.00	29.991 
10:45	26.3	26.3	26.3	86	22.7	3	6	270	0.00	29.998 
10:50	26.3	26.3	26.3	87	23.0	3	9	270	0.00	29.999 
10:55	26.1	26.1	26.1	86	22.5	3	8	270	0.00	30.001 
11:00	26.1	21.3	26.1	86	22.5	4	9	270	0.00	30.003 
11:05	26.1	26.1	26.1	86	22.5	3	7	270	0.00	30.001 
11:10	26.0	21.1	26.0	86	22.4	4	9	270	0.00	30.001 
11:15	25.8	25.8	25.8	86	22.2	3	6	270	0.00	30.000 
11:20	25.8	25.8	25.8	86	22.2	3	9	270	0.00	30.000 
11:25	25.7	25.7	25.7	86	22.1	3	11	270	0.00	29.999 
11:30	25.6	20.7	25.6	85	21.7	4	11	270	0.00	30.001 
11:35	25.4	20.5	25.4	85	21.5	4	12	270	0.00	30.000 
11:40	25.4	20.5	25.4	85	21.5	4	9	270	0.00	30.001 
11:45	25.3	25.3	25.3	85	21.4	3	6	270	0.00	30.001 
11:50	25.3	20.3	25.3	86	21.7	4	10	270	0.00	30.001 
11:55	25.3	20.3	25.3	87	22.0	4	10	270	0.00	30.001 
12:00	25.3	20.3	25.3	87	22.0	4	10	270	0.00	30.000 
12:05	25.0	18.9	25.0	87	21.7	5	13	270	0.00	30.001 
12:10	25.1	25.1	25.1	87	21.8	3	9	270	0.00	30.002 
12:15	25.1	19.0	25.1	87	21.8	5	11	270	0.00	30.002 
12:20	25.0	18.9	25.0	86	21.4	5	12	270	0.00	30.003 
12:25	24.8	18.6	24.8	86	21.2	5	11	270	0.00	30.003 
12:30	24.8	19.8	24.8	86	21.2	4	10	270	0.00	30.004 
12:35	24.5	19.4	24.5	85	20.6	4	11	270	0.00	30.003 
12:40	24.4	18.1	24.4	86	20.8	5	14	270	0.00	30.003 
12:45	24.2	19.1	24.2	86	20.6	4	10	270	0.00	30.004 
12:50	24.1	19.0	24.1	86	20.5	4	9	270	0.00	30.005 
12:55	23.8	17.4	23.8	85	20.0	5	13	270	0.00	30.008 
13:00	23.8	18.6	23.8	85	20.0	4	15	270	0.00	30.007 
13:05	23.5	16.1	23.5	85	19.7	6	18	270	0.00	30.011 
13:10	23.5	18.3	23.5	84	19.4	4	10	270	0.00	30.011 
13:15	23.5	18.3	23.5	84	19.4	4	14	270	0.00	30.008 
13:20	23.5	17.1	23.5	84	19.4	5	13	270	0.00	30.008 
13:25	23.5	18.3	23.5	84	19.4	4	7	270	0.00	30.009 
13:30	23.5	18.3	23.5	85	19.7	4	13	270	0.00	30.013 
13:35	23.3	18.0	23.3	85	19.5	4	10	270	0.00	30.016 
13:40	23.2	17.9	23.2	85	19.4	4	11	270	0.00	30.017 
13:45	23.2	17.9	23.2	85	19.4	4	10	270	0.00	30.019 
13:50	23.0	17.7	23.0	86	19.4	4	11	270	0.00	30.020 
13:55	23.0	17.7	23.0	85	19.2	4	7	270	0.00	30.021 
14:00	22.9	16.4	22.9	86	19.4	5	13	270	0.00	30.022 
14:05	22.9	17.6	22.9	86	19.4	4	12	270	0.00	30.022 
14:10	22.9	17.6	22.9	87	19.6	4	10	270	0.00	30.021 
14:15	22.9	17.6	22.9	86	19.4	4	13	270	0.00	30.022 
14:20	22.9	16.4	22.9	85	19.1	5	11	270	0.00	30.022 
14:25	22.9	17.6	22.9	86	19.4	4	10	270	0.00	30.023 
14:30	22.7	16.2	22.7	86	19.2	5	11	270	0.00	30.024 
14:35	22.7	22.7	22.7	87	19.4	3	13	270	0.00	30.025 
14:40	22.7	22.7	22.7	88	19.7	3	9	270	0.00	30.025 
14:45	22.7	17.3	22.7	87	19.4	4	12	270	0.00	30.025 
14:50	22.7	17.3	22.7	87	19.4	4	16	270	0.00	30.027 
14:55	22.7	17.3	22.7	87	19.4	4	10	270	0.00	30.029 
15:00	22.7	17.3	22.7	87	19.4	4	13	270	0.00	30.033 
15:05	22.5	15.9	22.5	86	19.0	5	16	270	0.00	30.036 
15:10	22.5	17.1	22.5	86	19.0	4	10	270	0.00	30.038 
15:15	22.4	17.0	22.4	86	18.9	4	14	270	0.00	30.039 
15:20	22.4	17.0	22.4	86	18.9	4	11	270	0.00	30.039 
15:25	22.4	17.0	22.4	86	18.9	4	11	270	0.00	30.041 
15:30	22.2	15.6	22.2	85	18.4	5	14	270	0.00	30.043 
15:35	22.1	16.6	22.1	85	18.3	4	8	270	0.00	30.046 
15:40	21.9	15.2	21.9	86	18.4	5	12	270	0.00	30.049 
15:45	21.9	16.4	21.9	86	18.4	4	10	270	0.00	30.051 
15:50	21.9	16.4	21.9	86	18.4	4	15	270	0.00	30.052 
15:55	21.8	15.1	21.8	86	18.3	5	14	270	0.00	30.054 
16:00	21.6	14.9	21.6	85	17.8	5	15	270	0.00	30.055 
16:05	21.4	14.6	21.4	85	17.6	5	11	270	0.00	30.058 
16:10	20.8	13.9	20.8	84	16.7	5	13	270	0.00	30.063 
16:15	20.6	14.9	20.6	85	16.8	4	13	270	0.00	30.066 
16:20	20.3	13.3	20.3	84	16.3	5	12	270	0.00	30.063 
16:25	20.2	13.2	20.2	85	16.4	5	13	270	0.00	30.067 
16:30	20.0	13.0	20.0	85	16.2	5	12	270	0.00	30.068 
16:35	20.0	14.2	20.0	86	16.5	4	14	270	0.00	30.071 
16:40	20.0	14.2	20.0	86	16.5	4	11	270	0.00	30.073 
16:45	19.9	14.1	19.9	86	16.4	4	15	270	0.00	30.075 
16:50	19.7	12.6	19.7	85	15.9	5	13	270	0.00	30.077 
16:55	19.5	13.6	19.5	86	16.0	4	10	270	0.00	30.080 
17:00	19.5	13.6	19.5	86	16.0	4	11	270	0.00	30.085 
17:05	19.5	13.6	19.5	86	16.0	4	11	270	0.00	30.088 
17:10	19.4	12.3	19.4	86	15.9	5	14	270	0.00	30.090 
17:15	19.4	13.5	19.4	86	15.9	4	6	270	0.00	30.090 
17:20	19.4	12.3	19.4	86	15.9	5	12	270	0.00	30.090 
17:25	19.2	13.3	19.2	86	15.7	4	11	270	0.00	30.092 
17:30	19.2	13.3	19.2	86	15.7	4	10	270	0.00	30.092 
17:35	19.1	13.2	19.1	85	15.3	4	10	270	0.00	30.098 
17:40	18.9	12.9	18.9	84	14.9	4	10	270	0.00	30.100 
17:45	18.9	18.9	18.9	85	15.2	3	11	270	0.00	30.101 
17:50	18.8	12.8	18.8	85	15.1	4	12	270	0.00	30.103 
17:55	18.8	11.6	18.8	84	14.8	5	12	270	0.00	30.103 
18:00	18.6	12.6	18.6	84	14.6	4	10	270	0.00	30.104 
18:05	18.6	12.6	18.6	85	14.9	4	9	270	0.00	30.106 
18:10	18.6	18.6	18.6	85	14.9	3	10	270	0.00	30.107 
18:15	18.6	18.6	18.6	85	14.9	3	8	270	0.00	30.110 
18:20	18.6	18.6	18.6	85	14.9	3	6	270	0.00	30.113 
18:25	18.6	12.6	18.6	85	14.9	4	9	270	0.00	30.114 
18:30	18.6	12.6	18.6	85	14.9	4	12	270	0.00	30.115 
18:35	18.4	12.4	18.4	85	14.7	4	10	270	0.00	30.120 
18:40	18.4	12.4	18.4	85	14.7	4	10	270	0.00	30.119 
18:45	18.4	12.4	18.4	85	14.7	4	16	270	0.00	30.118 
18:50	18.3	11.0	18.3	86	14.8	5	10	270	0.00	30.117 
18:55	18.3	12.3	18.3	86	14.8	4	11	270	0.00	30.119 
19:00	18.3	12.3	18.3	86	14.8	4	10	270	0.00	30.116 
19:05	18.3	12.3	18.3	86	14.8	4	10	270	0.00	30.122 
19:10	18.3	12.3	18.3	86	14.8	4	10	270	0.00	30.120 
19:15	18.4	12.4	18.4	87	15.2	4	12	270	0.00	30.121 
19:20	18.4	12.4	18.4	87	15.2	4	10	270	0.00	30.122 
19:25	18.4	18.4	18.4	87	15.2	3	7	270	0.00	30.121 
19:30	18.4	18.4	18.4	87	15.2	3	11	270	0.00	30.122 
19:35	18.4	18.4	18.4	87	15.2	3	7	270	0.00	30.122 
19:40	18.6	18.6	18.6	87	15.4	3	10	270	0.00	30.123 
19:45	18.6	18.6	18.6	87	15.4	3	7	270	0.00	30.124 
19:50	18.6	12.6	18.6	87	15.4	4	7	270	0.00	30.122 
19:55	18.6	18.6	18.6	87	15.4	3	9	270	0.00	30.122 
20:00	18.6	18.6	18.6	87	15.4	3	5	270	0.00	30.121 
20:05	18.6	12.6	18.6	87	15.4	4	9	270	0.00	30.119 
20:10	18.8	18.8	18.8	87	15.6	3	8	270	0.00	30.122 
20:15	18.8	18.8	18.8	87	15.6	3	7	270	0.00	30.116 
20:20	18.8	18.8	18.8	87	15.6	3	6	270	0.00	30.119 
20:25	18.9	12.9	18.9	87	15.7	4	10	270	0.00	30.120 
20:30	18.9	18.9	18.9	87	15.7	3	6	270	0.00	30.122 
20:35	19.1	13.2	19.1	87	15.9	4	12	270	0.00	30.122 
20:40	19.1	19.1	19.1	87	15.9	3	6	270	0.00	30.120 
20:45	19.2	19.2	19.2	87	16.0	3	6	270	0.00	30.120 
20:50	19.2	19.2	19.2	87	16.0	3	6	270	0.00	30.123 
20:55	19.4	19.4	19.4	87	16.2	3	6	270	0.00	30.123 
21:00	19.4	19.4	19.4	87	16.2	3	9	270	0.00	30.123 
21:05	19.5	19.5	19.5	87	16.3	3	9	270	0.00	30.124 
21:10	19.5	19.5	19.5	87	16.3	3	4	270	0.00	30.125 
21:15	19.7	19.7	19.7	87	16.5	3	5	270	0.00	30.125 
21:20	19.7	19.7	19.7	87	16.5	3	9	270	0.00	30.125 
21:25	19.7	19.7	19.7	87	16.5	3	6	270	0.00	30.125 
21:30	19.9	14.1	19.9	87	16.7	4	11	270	0.00	30.125 
21:35	19.9	19.9	19.9	87	16.7	3	6	270	0.00	30.124 
21:40	19.9	19.9	19.9	87	16.7	3	5	270	0.00	30.124 
21:45	19.7	13.9	19.7	87	16.5	4	7	270	0.00	30.126 
21:50	19.7	13.9	19.7	87	16.5	4	6	270	0.00	30.126 
21:55	19.7	19.7	19.7	87	16.5	3	6	270	0.00	30.128 
22:00	19.7	19.7	19.7	87	16.5	3	9	270	0.00	30.127 
22:05	19.7	19.7	19.7	87	16.5	3	10	270	0.00	30.129 
22:10	19.9	19.9	19.9	87	16.7	3	5	270	0.00	30.129 
22:15	19.9	19.9	19.9	87	16.7	3	5	270	0.00	30.131 
22:20	20.0	20.0	20.0	87	16.8	3	6	270	0.00	30.133 
22:25	20.2	20.2	20.2	87	17.0	3	6	270	0.00	30.135 
22:30	20.2	20.2	20.2	87	17.0	3	7	270	0.00	30.135 
22:35	20.3	20.3	20.3	87	17.1	3	7	292	0.00	30.137 
22:40	20.3	20.3	20.3	87	17.1	3	5	292	0.00	30.138 
22:45	20.3	20.3	20.3	87	17.1	3	6	270	0.00	30.138 
22:50	20.5	20.5	20.5	87	17.3	3	9	270	0.00	30.139 
22:55	20.5	20.5	20.5	87	17.3	3	6	270	0.00	30.139 
23:00	20.5	20.5	20.5	87	17.3	3	6	270	0.00	30.140 
23:05	20.6	20.6	20.6	87	17.4	2	5	292	0.00	30.141 
23:10	20.6	20.6	20.6	87	17.4	3	7	270	0.00	30.142 
23:15	20.8	20.8	20.8	87	17.6	3	7	270	0.00	30.142 
23:20	21.0	21.0	21.0	86	17.5	2	6	270	0.00	30.143 
23:25	21.0	14.2	21.0	85	17.2	5	15	270	0.00	30.143 
23:30	20.8	15.1	20.8	85	17.0	4	9	292	0.00	30.145 
23:35	20.8	20.8	20.8	84	16.7	3	7	292	0.00	30.145 
23:40	20.8	20.8	20.8	84	16.7	3	11	292	0.00	30.151 
23:45	20.6	20.6	20.6	84	16.5	3	9	315	0.00	30.152 
23:50	20.6	20.6	20.6	84	16.5	3	10	270	0.00	30.154 
23:55	20.6	20.6	20.6	84	16.5	3	7	292	0.00	30.153 

CoCoRaHS
IN-AL-39
A2 Web Hosting
Creative Commons License
GoDaddy
Look for:

loaded 2017-10-19 12:35:43 • last modified 2010-11-18 10:43:29
Privacy PolicyDisclaimer
• wx.awcolley.com is powered by PmWiki v.2002016 •
• all content (unless otherwise noted) © 2017 A W Colley